Hlavní strana
METAR-TAF:

METAR-TAF

Letiště :

Mezinárodní letiště Krále Abda al-Azíze

Džidda, Saúdská Arábie

zeměpisná šířka: 21-42N, zeměpisná délka: 039-11E, výška: 15 m

Aktuální stav počasí

Zpráva byla vytvořena před 39 minutami, v 05:00 UTC
Severoseverovýchodní vítr 7 kt
Teplota 31°C
Vlhkost vzduchu 71%
Tlak 1008 hPa
Viditelnost 10 km a více
Žádná oblačnost pod 1500 m, nevyskytují se cumulonimby.

METAR: OEJN 240500Z 02007KT CAVOK 31/25 Q1008 NOSIG

Čas: 08:39 (05:39 UTC)

Předpověď počasí

Zpráva byla vytvořena před 6 hodinami a 39 minutami, v 23:00 UTC
Předpověď platná od 24 v 00 UTC do 25 v 06 UTC
Severoseverovýchodní vítr 6 kt
Viditelnost: 6000 m
Skoro jasno ve výšce 4000 ft
Změna
od 24 v 06 UTC do 24 v 08 UTC
Severoseverozápadní vítr 8 kt s nárazy do 18 kt

TAF: OEJN 232300Z 2400/2506 03006KT 6000 FEW040 BECMG 2406/2408 34008G18KT

Stav a předpovědi počasí z více než 4 000 letišť (zprávy METAR a TAF).

Červené a žluté tečky na mapě představují dostupné meteorologické stanice.

Když kurzor umístíte na tečku, zobrazí se název stanice.

Pak kliknutím zobrazíte stav a předpověď počasí.

Chcete-li změnit mapu, kliknutím na zelené tlačítko se znaménkem +mapu přiblížíte, kliknutím na zelené tlačítko se znaménkem – mapu oddálíte a kliknutím na zelené šipky přejdete na sousední mapy.


METAR-TAF: